createdAt,value
2024-03-12T00:03:12.592Z,26.73
2024-03-12T00:08:17.881Z,28.73
2024-03-12T00:13:22.214Z,28.67
2024-03-12T00:18:28.337Z,29.27
2024-03-12T00:23:31.494Z,31.03
2024-03-12T00:28:34.691Z,27.63
2024-03-12T00:33:38.015Z,28.37
2024-03-12T00:38:41.772Z,30.90
2024-03-12T00:43:44.977Z,24.23
2024-03-12T00:48:48.609Z,30.80
2024-03-12T00:53:51.617Z,25.43
2024-03-12T00:58:54.768Z,33.83
2024-03-12T01:03:57.775Z,33.20
2024-03-12T01:09:04.537Z,33.40
2024-03-12T01:14:07.542Z,32.10
2024-03-12T01:19:11.300Z,29.87
2024-03-12T01:24:14.731Z,28.73
2024-03-12T01:29:18.292Z,26.20
2024-03-12T01:34:26.957Z,26.93
2024-03-12T01:39:29.957Z,30.50
2024-03-12T01:44:36.571Z,32.07
2024-03-12T01:49:39.983Z,26.47
2024-03-12T01:54:45.603Z,29.90
2024-03-12T01:59:48.768Z,31.33
2024-03-12T02:04:51.878Z,32.20
2024-03-12T02:09:55.061Z,31.93
2024-03-12T02:15:04.363Z,29.07
2024-03-12T02:20:10.611Z,29.20
2024-03-12T02:25:14.028Z,32.67
2024-03-12T02:30:18.008Z,23.17
2024-03-12T02:35:21.572Z,39.07
2024-03-12T02:40:25.127Z,32.73
2024-03-12T02:45:28.296Z,26.57
2024-03-12T02:50:31.196Z,34.87
2024-03-12T02:55:36.014Z,28.77
2024-03-12T03:00:41.513Z,28.27
2024-03-12T03:05:45.181Z,30.87
2024-03-12T03:10:48.119Z,26.67
2024-03-12T03:15:51.379Z,27.20
2024-03-12T03:20:57.339Z,26.37
2024-03-12T03:26:00.591Z,34.33
2024-03-12T03:31:12.186Z,29.43
2024-03-12T03:36:15.855Z,27.37
2024-03-12T03:41:19.223Z,25.87
2024-03-12T03:46:22.349Z,33.97
2024-03-12T03:51:25.631Z,29.93
2024-03-12T03:56:29.480Z,26.13
2024-03-12T04:01:32.992Z,29.90
2024-03-12T04:06:35.917Z,30.07
2024-03-12T04:11:39.961Z,27.97
2024-03-12T04:16:43.361Z,28.43
2024-03-12T04:21:46.875Z,32.13
2024-03-12T04:26:50.150Z,28.60
2024-03-12T04:31:56.383Z,30.07
2024-03-12T04:37:00.241Z,33.80
2024-03-12T04:42:06.728Z,28.90
2024-03-12T04:47:11.054Z,31.37
2024-03-12T04:52:14.422Z,29.17
2024-03-12T04:57:18.494Z,28.30
2024-03-12T05:02:21.782Z,29.40
2024-03-12T05:07:25.196Z,28.80
2024-03-12T05:12:28.807Z,24.37
2024-03-12T05:17:32.113Z,26.90
2024-03-12T05:22:35.106Z,29.60
2024-03-12T05:27:40.083Z,26.90
2024-03-12T05:32:50.372Z,30.53
2024-03-12T05:38:13.176Z,31.57
2024-03-12T05:43:35.138Z,26.73
2024-03-12T05:48:39.596Z,28.43
2024-03-12T05:53:43.442Z,30.47
2024-03-12T05:58:49.898Z,27.97
2024-03-12T06:03:53.508Z,27.53
2024-03-12T06:08:57.534Z,27.67
2024-03-12T06:14:03.834Z,32.43
2024-03-12T06:19:08.168Z,25.50
2024-03-12T06:24:11.388Z,29.57
2024-03-12T06:29:15.623Z,29.60
2024-03-12T06:34:19.076Z,34.23
2024-03-12T06:39:22.481Z,28.67
2024-03-12T06:44:27.252Z,29.10
2024-03-12T06:49:30.481Z,31.57
2024-03-12T06:54:36.806Z,28.17
2024-03-12T06:59:45.126Z,28.27
2024-03-12T07:04:52.490Z,33.30
2024-03-12T07:10:01.377Z,28.70
2024-03-12T07:15:07.031Z,27.53
2024-03-12T07:20:13.782Z,31.63
2024-03-12T07:25:20.503Z,38.47
2024-03-12T07:30:26.255Z,30.00
2024-03-12T07:35:29.899Z,34.27
2024-03-12T07:40:35.819Z,37.07
2024-03-12T07:45:45.429Z,38.57
2024-03-12T07:50:49.360Z,29.77
2024-03-12T07:55:57.907Z,32.83
2024-03-12T08:01:02.772Z,34.80
2024-03-12T08:06:06.114Z,32.37
2024-03-12T08:11:09.685Z,33.73
2024-03-12T08:16:13.048Z,33.53
2024-03-12T08:21:17.746Z,30.53
2024-03-12T08:26:22.170Z,32.57
2024-03-12T08:31:32.828Z,26.57
2024-03-12T08:36:39.465Z,26.17
2024-03-12T08:41:43.733Z,29.40
2024-03-12T08:46:47.290Z,27.77
2024-03-12T08:51:51.832Z,30.37
2024-03-12T08:56:55.364Z,28.67
2024-03-12T09:02:01.267Z,26.73
2024-03-12T09:07:05.000Z,32.30
2024-03-12T09:12:09.837Z,31.47
2024-03-12T09:17:13.942Z,25.83
2024-03-12T09:22:18.405Z,31.93
2024-03-12T09:27:21.771Z,34.90
2024-03-12T09:32:26.024Z,31.30
2024-03-12T09:37:29.489Z,32.40
2024-03-12T09:42:37.622Z,34.07
2024-03-12T09:47:46.104Z,34.83
2024-03-12T09:52:51.746Z,31.33
2024-03-12T09:57:56.312Z,29.30
2024-03-12T10:03:01.326Z,38.63
2024-03-12T10:08:09.223Z,32.73
2024-03-12T10:13:17.088Z,38.43
2024-03-12T10:18:22.444Z,34.70
2024-03-12T10:23:30.583Z,31.13
2024-03-12T10:28:34.004Z,36.53
2024-03-12T10:33:43.732Z,36.87
2024-03-12T10:38:47.015Z,35.67
2024-03-12T10:43:56.725Z,34.50
2024-03-12T10:49:00.953Z,31.13
2024-03-12T10:54:09.169Z,34.90
2024-03-12T10:59:13.760Z,31.57
2024-03-12T11:04:17.665Z,36.20
2024-03-12T11:09:23.559Z,32.60
2024-03-12T11:14:29.802Z,37.07
2024-03-12T11:19:35.452Z,34.97
2024-03-12T11:24:50.289Z,38.90
2024-03-12T11:30:06.754Z,45.90
2024-03-12T11:35:19.730Z,34.87
2024-03-12T11:40:30.377Z,39.87
2024-03-12T11:45:49.226Z,35.77
2024-03-12T11:50:56.190Z,40.90
2024-03-12T11:56:09.947Z,39.43
2024-03-12T12:01:23.593Z,40.17
2024-03-12T12:06:28.383Z,38.73
2024-03-12T12:11:33.777Z,37.10
2024-03-12T12:16:37.262Z,38.73
2024-03-12T12:21:40.825Z,35.47
2024-03-12T12:26:48.421Z,41.43
2024-03-12T12:31:54.903Z,44.77
2024-03-12T12:37:00.041Z,35.40
2024-03-12T12:42:08.985Z,44.83
2024-03-12T12:47:12.059Z,41.53
2024-03-12T12:52:16.688Z,41.03
2024-03-12T12:57:20.172Z,37.90
2024-03-12T13:02:24.967Z,32.90
2024-03-12T13:07:34.857Z,41.37
2024-03-12T13:12:40.166Z,46.10
2024-03-12T13:17:44.422Z,41.03
2024-03-12T13:22:49.875Z,41.93
2024-03-12T13:27:53.311Z,43.77
2024-03-12T13:32:56.447Z,30.23
2024-03-12T13:38:00.640Z,34.67
2024-03-12T13:43:05.120Z,31.77
2024-03-12T13:48:08.967Z,37.53
2024-03-12T13:53:12.378Z,42.33
2024-03-12T13:58:15.958Z,39.70
2024-03-12T14:03:22.572Z,31.67
2024-03-12T14:08:27.398Z,32.53
2024-03-12T14:13:30.726Z,38.17
2024-03-12T14:18:34.409Z,29.53
2024-03-12T14:23:38.981Z,40.07
2024-03-12T14:28:42.071Z,29.90
2024-03-12T14:33:45.128Z,29.80
2024-03-12T14:38:50.045Z,32.43
2024-03-12T14:43:55.632Z,38.43
2024-03-12T14:48:58.544Z,28.33
2024-03-12T14:54:01.811Z,37.20
2024-03-12T14:59:07.168Z,29.63
2024-03-12T15:04:10.765Z,33.20
2024-03-12T15:09:15.272Z,35.27
2024-03-12T15:14:18.813Z,38.27
2024-03-12T15:19:22.474Z,32.50
2024-03-12T15:24:26.164Z,31.47
2024-03-12T15:29:30.994Z,41.67
2024-03-12T15:34:34.054Z,41.67
2024-03-12T15:39:37.643Z,30.37
2024-03-12T15:44:40.967Z,35.00
2024-03-12T15:49:44.312Z,34.30
2024-03-12T15:54:49.682Z,34.27
2024-03-12T15:59:52.914Z,34.33
2024-03-12T16:04:56.254Z,38.83
2024-03-12T16:09:59.987Z,37.13
2024-03-12T16:15:03.705Z,37.03
2024-03-12T16:20:20.649Z,35.47
2024-03-12T16:25:24.196Z,44.00
2024-03-12T16:30:27.821Z,40.93
2024-03-12T16:35:31.050Z,33.07
2024-03-12T16:40:34.472Z,40.83
2024-03-12T16:45:38.268Z,37.70
2024-03-12T16:50:41.682Z,41.63
2024-03-12T16:55:45.461Z,49.10
2024-03-12T17:00:48.635Z,44.90
2024-03-12T17:05:53.882Z,38.67
2024-03-12T17:10:57.489Z,46.47
2024-03-12T17:16:01.553Z,51.70
2024-03-12T17:21:04.887Z,42.83
2024-03-12T17:26:11.319Z,45.13
2024-03-12T17:31:15.996Z,44.50
2024-03-12T17:36:24.740Z,40.30
2024-03-12T17:41:28.341Z,43.57
2024-03-12T17:46:34.936Z,51.90
2024-03-12T17:51:38.282Z,43.53
2024-03-12T17:56:48.941Z,41.13
2024-03-12T18:01:53.708Z,37.37
2024-03-12T18:07:01.556Z,40.30
2024-03-12T18:12:05.421Z,47.67
2024-03-12T18:17:08.943Z,39.30
2024-03-12T18:22:14.709Z,38.97
2024-03-12T18:27:17.926Z,48.97
2024-03-12T18:32:22.016Z,42.43
2024-03-12T18:37:26.271Z,42.17
2024-03-12T18:42:32.001Z,42.23
2024-03-12T18:47:35.747Z,38.90
2024-03-12T18:52:40.255Z,44.97
2024-03-12T18:57:45.622Z,41.20
2024-03-12T19:02:50.132Z,47.80
2024-03-12T19:07:53.973Z,71.05
2024-03-12T19:12:59.437Z,43.60
2024-03-12T19:18:08.144Z,47.50
2024-03-12T19:23:11.737Z,42.67
2024-03-12T19:28:21.567Z,39.63
2024-03-12T19:33:28.209Z,47.40
2024-03-12T19:38:32.896Z,47.97
2024-03-12T19:43:37.352Z,60.80
2024-03-12T19:48:47.705Z,63.07
2024-03-12T19:53:58.040Z,61.93
2024-03-12T19:59:02.018Z,50.87
2024-03-12T20:04:05.685Z,53.73
2024-03-12T20:09:23.561Z,50.40
2024-03-12T20:14:29.119Z,56.07
2024-03-12T20:19:33.494Z,56.77
2024-03-12T20:24:36.828Z,54.60
2024-03-12T20:29:39.993Z,54.17
2024-03-12T20:34:43.757Z,53.83
2024-03-12T20:39:48.059Z,55.77
2024-03-12T20:44:51.324Z,56.43
2024-03-12T20:49:54.596Z,53.57
2024-03-12T20:54:59.212Z,63.83
2024-03-12T21:00:02.776Z,56.77
2024-03-12T21:05:06.345Z,45.73
2024-03-12T21:10:12.805Z,43.33
2024-03-12T21:15:17.660Z,56.77
2024-03-12T21:20:29.952Z,56.00
2024-03-12T21:25:35.874Z,54.90
2024-03-12T21:30:42.269Z,45.80
2024-03-12T21:35:46.065Z,54.23
2024-03-12T21:40:49.306Z,50.17
2024-03-12T21:45:57.248Z,58.77
2024-03-12T21:51:00.466Z,62.07
2024-03-12T21:56:03.797Z,75.50
2024-03-12T22:01:07.718Z,57.80
2024-03-12T22:06:15.605Z,86.17
2024-03-12T22:11:20.749Z,84.57
2024-03-12T22:16:23.835Z,77.63
2024-03-12T22:21:27.196Z,73.23
2024-03-12T22:26:30.431Z,71.90
2024-03-12T22:31:33.653Z,77.60
2024-03-12T22:36:37.133Z,63.17
2024-03-12T22:41:45.193Z,71.60
2024-03-12T22:46:48.573Z,96.17
2024-03-12T22:51:57.884Z,80.47
2024-03-12T22:57:01.899Z,75.70
2024-03-12T23:02:06.569Z,68.63
2024-03-12T23:07:11.129Z,67.37
2024-03-12T23:12:14.611Z,65.80
2024-03-12T23:17:20.705Z,60.90
2024-03-12T23:22:24.665Z,68.60
2024-03-12T23:27:27.729Z,63.67
2024-03-12T23:32:32.404Z,62.73
2024-03-12T23:37:37.010Z,63.60
2024-03-12T23:42:40.468Z,64.87
2024-03-12T23:47:44.743Z,71.27
2024-03-12T23:52:50.255Z,68.87
2024-03-12T23:57:54.776Z,54.77
